• Join FlightAware (Why Join?)
  • Login
  • US Flag 
10:40AM EDT


 

Airport Tracker/Info


-or-


 

Live Flight TrackerFlight Track Log ✈ FLG4099 ✈ 10-May-2013 ✈ KBTV - KDTW

Flight Track Log - Related Links

Times and Time Zones

All times are in EDT time to prevent confusion due to time zone crossing. See the FLG4099 flight status page for this flight to view local times or setup timezone preferences in your user account.

Time Position Orientation Groundspeed Altitude Reporting Facility
EDT Latitude Longitude Course Direction KTS MPH feet Rate Location/Type
06:15AM 44.3931 -73.3553 255° West 265 305 7,800  Level Boston Center
06:16AM 44.3544 -73.7861 259° West  Level FlightAware Approximate
06:16AM 44.3756 -73.4625 257° West 277 319 10,000  Level Boston Center
06:17AM 44.3360 -73.9147 259° West  Level FlightAware Approximate
06:17AM 44.3536 -73.5897 256° West 317 365 10,500  Level Boston Center
06:18AM 44.3134 -74.0419 256° West  Level FlightAware Approximate
06:18AM 44.3203 -73.7633 255° West 361 415 13,100  Level Boston Center
06:19AM 44.2900 -74.1688 256° West  Level FlightAware Approximate
06:19AM 44.2958 -73.8992 256° West 366 421 15,100  Level Boston Center
06:20AM 44.2664 -74.2957 255° West  Level FlightAware Approximate
06:20AM 44.2692 -74.0317 254° West 366 421 16,600  Level Boston Center
06:21AM 44.2464 -74.1528 255° West 366 421 17,900 1,380 Climbing Boston Center
06:22AM 44.2214 -74.2883 256° West 361 415 19,400 1,260 Climbing Boston Center
06:23AM 44.1922 -74.4236 253° West 361 415 20,500 1,020 Climbing Boston Center
06:24AM 44.1667 -74.5644 256° West 366 421 21,500 960 Climbing Boston Center
06:25AM 44.1389 -74.7053 255° West 376 433 22,500 960 Climbing Boston Center
06:26AM 44.1111 -74.8458 255° West 376 433 23,500 960 Climbing Boston Center
06:27AM 44.0831 -74.9892 255° West 376 433 24,500 960 Climbing Boston Center
06:28AM 44.0547 -75.1297 254° West 376 433 25,500 900 Climbing Boston Center
06:29AM 44.0314 -75.2383 253° West 376 433 26,300 660 Climbing Boston Center
06:30AM 43.9978 -75.4100 255° West 376 433 26,900 540 Climbing Boston Center
06:31AM 43.9669 -75.5556 254° West 381 438 27,400 480 Climbing Boston Center
06:32AM 43.9358 -75.7011 254° West 387 445 27,900 300 Climbing Boston Center
06:33AM 43.9064 -75.8494 255° West 397 457 28,000  Climbing Boston Center
06:35AM 43.8367 -76.1542 252° West 410 472 28,000  Level Cleveland Center
06:35AM 43.8167 -76.1667 204° Southwest 420 483 28,000  Level Toronto Center
06:36AM 43.7500 -76.3333 241° Southwest 420 483 28,000  Level Toronto Center
06:37AM 43.7000 -76.4667 243° Southwest 430 495 28,000  Level Toronto Center
06:38AM 43.6333 -76.6333 241° Southwest 430 495 28,000  Level Toronto Center
06:39AM 43.6000 -76.7833 253° West 430 495 28,000  Level Toronto Center
06:40AM 43.5728 -76.8983 252° West 437 503 28,000  Level Cleveland Center
06:41AM 43.5192 -77.0475 244° Southwest 442 509 28,000  Level Cleveland Center
06:42AM 43.4653 -77.1967 244° Southwest 442 509 28,000  Level Cleveland Center
06:43AM 43.4172 -77.3336 244° Southwest 431 496 28,000  Level Cleveland Center
06:44AM 43.3706 -77.4617 243° Southwest 406 467 28,000  Level Cleveland Center
06:45AM 43.3156 -77.5900 240° Southwest 394 453 28,000  Level Cleveland Center
06:46AM 43.2542 -77.7128 236° Southwest 394 453 28,000  Level Cleveland Center
06:47AM 43.1903 -77.8353 234° Southwest 401 461 28,000  Level Cleveland Center
06:48AM 43.1267 -77.9578 235° Southwest 407 468 28,000  Level Cleveland Center
06:49AM 43.0686 -78.0739 236° Southwest 407 468 28,000  Level Cleveland Center
06:50AM 43.0067 -78.1928 235° Southwest 407 468 28,000  Level Cleveland Center
06:51AM 42.9444 -78.3169 236° Southwest 407 468 28,000  Level Cleveland Center
06:52AM 42.8822 -78.4411 236° Southwest 407 468 28,000  Level Cleveland Center
06:53AM 42.8219 -78.5594 235° Southwest 402 463 28,000  Level Cleveland Center
06:54AM 42.7614 -78.6828 236° Southwest 402 463 28,000  Level Cleveland Center
06:55AM 42.7008 -78.8061 236° Southwest 402 463 28,000  Level Cleveland Center
06:56AM 42.6422 -78.9236 236° Southwest 402 463 28,000  Level Cleveland Center
06:57AM 42.5814 -79.0464 236° Southwest 402 463 28,000  Level Cleveland Center
06:58AM 42.5414 -79.1769 247° West 392 451 28,000  Level Cleveland Center
06:59AM 42.5575 -79.3175 279° West 366 421 28,000  Level Cleveland Center
07:00AM 42.5736 -79.4583 279° West 371 427 28,000  Level Cleveland Center
07:01AM 42.5853 -79.5989 276° West 377 434 28,000  Level Cleveland Center
07:02AM 42.5989 -79.7428 277° West 388 447 28,000  Level Cleveland Center
07:03AM 42.6186 -79.8919 280° West 388 447 28,000  Level Cleveland Center
07:04AM 42.6278 -80.0469 275° West 403 464 28,000  Level Cleveland Center
07:05AM 42.6450 -80.2133 278° West 408 470 28,000  Level Cleveland Center
07:06AM 42.6581 -80.3658 277° West 408 470 28,000  Level Cleveland Center
07:07AM 42.6728 -80.5156 278° West 420 483 28,000 -420 Level Cleveland Center
07:08AM 42.6853 -80.6708 276° West 420 483 27,200 -900 Descending Cleveland Center
07:09AM 42.7017 -80.8233 278° West 406 467 26,200 -1,020 Descending Cleveland Center
07:10AM 42.6972 -80.9672 268° West 400 460 25,200 -1,020 Descending Cleveland Center
07:11AM 42.6819 -81.1142 262° West 400 460 24,200 -600 Descending Cleveland Center
07:12AM 42.6667 -81.2581 262° West 400 460 24,000 -120 Descending Cleveland Center
07:13AM 42.6469 -81.4047 260° West 400 460 24,000 -540 Level Cleveland Center
07:14AM 42.6311 -81.5511 262° West 395 455 23,000 -1,380 Descending Cleveland Center
07:15AM 42.6133 -81.6892 260° West 384 442 21,300 -1,740 Descending Cleveland Center
07:16AM 42.5972 -81.8269 261° West 378 435 19,600 -1,740 Descending Cleveland Center
07:17AM 42.5792 -81.9647 260° West 373 429 17,900 -1,620 Descending Cleveland Center
07:18AM 42.5650 -82.0942 262° West 368 423 16,400 -1,560 Descending Cleveland Center
07:18AM 42.5622 -82.1308 264° West 352 405 15,900 -1,500 Descending Cleveland Center
07:19AM 42.5486 -82.2233 259° West 363 418 14,900 -1,320 Descending Cleveland Center
07:20AM 42.5319 -82.3497 260° West 352 405 13,700 -1,200 Descending Cleveland Center
07:21AM 42.5175 -82.4789 261° West 352 405 12,500 -900 Descending Cleveland Center
07:22AM 42.4864 -82.5964 250° West 347 399 11,900 -1,080 Descending Cleveland Center
07:23AM 42.4386 -82.6989 238° Southwest 334 384 10,400 -1,320 Descending Cleveland Center
07:24AM 42.4017 -82.7764 237° Southwest 296 341 9,300 -1,380 Descending Cleveland Center
07:25AM 42.3733 -82.8400 239° Southwest 243 280 7,700 -1,200 Descending Cleveland Center
07:26AM 42.3450 -82.9036 239° Southwest 215 247 7,000 -360 Descending Cleveland Center
07:27AM 42.3292 -82.9678 252° West 194 223 7,000  Level Cleveland Center
07:28AM 42.3936 -82.9814 351° North 142 163 7,000 -360 Level Cleveland Center
07:29AM 42.4719 -83.0153 342° North 208 239 6,200 -480 Descending Cleveland Center
07:30AM 42.5086 -83.0619 317° Northwest 182 209 6,000 -120 Descending Cleveland Center
07:31AM 42.5181 -83.1072 286° West 156 180 6,000  Level Cleveland Center
07:32AM 42.4819 -83.1394 213° Southwest 166 191 6,000 -180 Level Cleveland Center
07:33AM 42.4414 -83.1717 210° Southwest 161 185 5,700 -600 Descending Cleveland Center
07:34AM 42.4011 -83.2011 208° Southwest 156 180 4,800 -900 Descending Cleveland Center
07:35AM 42.3672 -83.2278 210° Southwest 160 184 4,000 -840 Descending Cleveland Center
07:36AM 42.3247 -83.2597 209° Southwest 146 168 3,100 -840 Descending Cleveland Center